Time;durP1;ratioP1;P1;durP2;ratioP2;P2;SDS_P1;SDS_P2;PMS_P1;PMS_P2;Temp;Humidity;BMP_temperature;BMP_pressure;BME280_temperature;BME280_humidity;BME280_pressure;Samples;Min_cycle;Max_cycle;Signal;HPM_P1;HPM_P2
2022/09/21 00:00:34;;;;;;;;;;;;;;;;;;5056295;28;20012;-77
2022/09/21 00:03:01;;;;;;;;;;;;;;;;;;5039596;28;19931;-77
2022/09/21 00:05:27;;;;;;;;;;;;;;;;;;5036969;28;19925;-77
2022/09/21 00:07:54;;;;;;;;;;;;;;;;;;5036742;28;20396;-77
2022/09/21 00:10:20;;;;;;;;;;;;;;;;;;5054282;28;20007;-77
2022/09/21 00:12:48;;;;;;;;;;;;;;;;;;5054469;28;19924;-77
2022/09/21 00:15:16;;;;;;;;;;;;;;;;;;5053916;28;20011;-77
2022/09/21 00:17:43;;;;;;;;;;;;;;;;;;5054605;28;19932;-77
2022/09/21 00:20:09;;;;;;;;;;;;;;;;;;5053806;28;19939;-77
2022/09/21 00:22:36;;;;;;;;;;;;;;;;;;5054631;28;19925;-77
2022/09/21 00:25:03;;;;;;;;;;;;;;;;;;5054261;28;20484;-77
2022/09/21 00:27:30;;;;;;;;;;;;;;;;;;5054242;28;19974;-77
2022/09/21 00:29:59;;;;;;;;;;;;;;;;;;5053854;28;19925;-77
2022/09/21 00:32:26;;;;;;;;;;;;;;;;;;5054241;28;19924;-77
2022/09/21 00:34:53;;;;;;;;;;;;;;;;;;5054071;28;20323;-77
2022/09/21 00:37:20;;;;;;;;;;;;;;;;;;5053725;28;19929;-77
2022/09/21 00:39:46;;;;;;;;;;;;;;;;;;5053878;28;20019;-77
2022/09/21 00:42:15;;;;;;;;;;;;;;;;;;5053319;28;19924;-77
2022/09/21 00:44:41;;;;;;;;;;;;;;;;;;5054120;28;19931;-77
2022/09/21 00:47:12;;;;;;;;;;;;;;;;;;5053860;28;19925;-78
2022/09/21 00:49:39;;;;;;;;;;;;;;;;;;5053780;28;20003;-77
2022/09/21 00:52:06;;;;;;;;;;;;;;;;;;5053829;28;19970;-77
2022/09/21 00:54:36;;;;;;;;;;;;;;;;;;5054073;28;19931;-77
2022/09/21 00:57:02;;;;;;;;;;;;;;;;;;5051959;28;20388;-77
2022/09/21 00:59:31;;;;;;;;;;;;;;;;;;5057516;28;20374;-77
2022/09/21 01:01:58;;;;;;;;;;;;;;;;;;5050566;28;19925;-77
2022/09/21 01:04:27;;;;;;;;;;;;;;;;;;5057322;28;19924;-77
2022/09/21 01:06:54;;;;;;;;;;;;;;;;;;5059820;28;19971;-77
2022/09/21 01:09:20;;;;;;;;;;;;;;;;;;5054962;28;20362;-77
2022/09/21 01:11:52;;;;;;;;;;;;;;;;;;5061607;28;19984;-77
2022/09/21 01:14:26;;;;;;;;;;;;;;;;;;5062215;28;19929;-77
2022/09/21 01:17:01;;;;;;;;;;;;;;;;;;5060385;28;19979;-77
2022/09/21 01:19:40;;;;;;;;;;;;;;;;;;5058028;28;19924;-77
2022/09/21 01:22:10;;;;;;;;;;;;;;;;;;5056556;28;20398;-77
2022/09/21 01:24:42;;;;;;;;;;;;;;;;;;5063237;28;19928;-77
2022/09/21 01:27:27;;;;;;;;;;;;;;;;;;5065370;28;19931;-76
2022/09/21 01:29:58;;;;;;;;;;;;;;;;;;5065887;28;19971;-76
2022/09/21 01:32:26;;;;;;;;;;;;;;;;;;5063578;28;20338;-76
2022/09/21 01:34:55;;;;;;;;;;;;;;;;;;5063196;28;19924;-76
2022/09/21 01:37:24;;;;;;;;;;;;;;;;;;5060651;28;19925;-77
2022/09/21 01:39:54;;;;;;;;;;;;;;;;;;5055011;28;20367;-75
2022/09/21 01:42:21;;;;;;;;;;;;;;;;;;5056059;28;19929;-77
2022/09/21 01:44:49;;;;;;;;;;;;;;;;;;5054207;28;19931;-75
2022/09/21 01:47:17;;;;;;;;;;;;;;;;;;5054918;28;19928;-75
2022/09/21 01:49:45;;;;;;;;;;;;;;;;;;5057635;28;19939;-75
2022/09/21 01:52:14;;;;;;;;;;;;;;;;;;5054993;28;20011;-75
2022/09/21 01:54:42;;;;;;;;;;;;;;;;;;5053991;28;19939;-75
2022/09/21 01:57:11;;;;;;;;;;;;;;;;;;5054002;28;19971;-75
2022/09/21 01:59:42;;;;;;;;;;;;;;;;;;5053161;28;19924;-75
2022/09/21 02:02:11;;;;;;;;;;;;;;;;;;5034599;28;20410;-75
2022/09/21 02:04:38;;;;;;;;;;;;;;;;;;5033780;28;19932;-75
2022/09/21 02:07:06;;;;;;;;;;;;;;;;;;5053278;28;19925;-75
2022/09/21 02:09:33;;;;;;;;;;;;;;;;;;5052450;28;19931;-75
2022/09/21 02:12:01;;;;;;;;;;;;;;;;;;5052536;28;19925;-76
2022/09/21 02:14:27;;;;;;;;;;;;;;;;;;5052776;28;19924;-75
2022/09/21 02:17:01;;;;;;;;;;;;;;;;;;5051728;28;19925;-75
2022/09/21 02:19:33;;;;;;;;;;;;;;;;;;5052485;28;19925;-75
2022/09/21 02:22:03;;;;;;;;;;;;;;;;;;5052815;28;20035;-75
2022/09/21 02:24:35;;;;;;;;;;;;;;;;;;5052517;28;20303;-75
2022/09/21 02:27:03;;;;;;;;;;;;;;;;;;5052231;28;20307;-75
2022/09/21 02:29:35;;;;;;;;;;;;;;;;;;5052259;28;20446;-76
2022/09/21 02:32:05;;;;;;;;;;;;;;;;;;5052409;28;19928;-75
2022/09/21 02:34:34;;;;;;;;;;;;;;;;;;5052422;28;19929;-74
2022/09/21 02:37:04;;;;;;;;;;;;;;;;;;5052209;28;20011;-75
2022/09/21 02:39:33;;;;;;;;;;;;;;;;;;5051960;28;20390;-75
2022/09/21 02:42:01;;;;;;;;;;;;;;;;;;5052244;28;19925;-75
2022/09/21 02:44:31;;;;;;;;;;;;;;;;;;5052279;28;20475;-76
2022/09/21 02:47:00;;;;;;;;;;;;;;;;;;5052637;28;19979;-74
2022/09/21 02:49:30;;;;;;;;;;;;;;;;;;5052029;28;20003;-75
2022/09/21 02:51:58;;;;;;;;;;;;;;;;;;5052615;28;20312;-75
2022/09/21 02:54:28;;;;;;;;;;;;;;;;;;5061922;28;19925;-76
2022/09/21 02:56:55;;;;;;;;;;;;;;;;;;5060963;28;20011;-76
2022/09/21 02:59:22;;;;;;;;;;;;;;;;;;5061790;28;19939;-76
2022/09/21 03:01:48;;;;;;;;;;;;;;;;;;5056977;28;19925;-77
2022/09/21 03:04:16;;;;;;;;;;;;;;;;;;5048547;28;19925;-76
2022/09/21 03:06:42;;;;;;;;;;;;;;;;;;5063396;28;19931;-77
2022/09/21 03:09:08;;;;;;;;;;;;;;;;;;5062125;28;20442;-77
2022/09/21 03:11:36;;;;;;;;;;;;;;;;;;5058106;28;19960;-73
2022/09/21 03:14:07;;;;;;;;;;;;;;;;;;5053827;28;19931;-76
2022/09/21 03:16:33;;;;;;;;;;;;;;;;;;5053047;28;20272;-76
2022/09/21 03:19:00;;;;;;;;;;;;;;;;;;5052570;28;19924;-75
2022/09/21 03:21:26;;;;;;;;;;;;;;;;;;5051978;28;19931;-76
2022/09/21 03:23:53;;;;;;;;;;;;;;;;;;5052725;28;20008;-76
2022/09/21 03:26:21;;;;;;;;;;;;;;;;;;5052379;28;19925;-76
2022/09/21 03:28:49;;;;;;;;;;;;;;;;;;5054969;28;19931;-76
2022/09/21 03:31:15;;;;;;;;;;;;;;;;;;5056956;28;19931;-75
2022/09/21 03:33:41;;;;;;;;;;;;;;;;;;5056819;28;20032;-77
2022/09/21 03:36:08;;;;;;;;;;;;;;;;;;5055968;28;19987;-76
2022/09/21 03:38:36;;;;;;;;;;;;;;;;;;5056885;28;19940;-76
2022/09/21 03:41:02;;;;;;;;;;;;;;;;;;5056958;28;19924;-75
2022/09/21 03:43:29;;;;;;;;;;;;;;;;;;5056561;28;20007;-76
2022/09/21 03:45:57;;;;;;;;;;;;;;;;;;5057106;28;19929;-75
2022/09/21 03:48:23;;;;;;;;;;;;;;;;;;5058167;28;20003;-76
2022/09/21 03:50:50;;;;;;;;;;;;;;;;;;5057503;28;19925;-76
2022/09/21 03:53:16;;;;;;;;;;;;;;;;;;5057091;28;20263;-76
2022/09/21 03:55:43;;;;;;;;;;;;;;;;;;5056680;28;19931;-75
2022/09/21 03:58:10;;;;;;;;;;;;;;;;;;5056040;28;20368;-76
2022/09/21 04:00:37;;;;;;;;;;;;;;;;;;5055815;28;20004;-76
2022/09/21 04:03:04;;;;;;;;;;;;;;;;;;5052246;28;19928;-76
2022/09/21 04:05:31;;;;;;;;;;;;;;;;;;5056737;28;19947;-76
2022/09/21 04:07:57;;;;;;;;;;;;;;;;;;5055052;28;19988;-74
2022/09/21 04:10:26;;;;;;;;;;;;;;;;;;5054454;28;19975;-76
2022/09/21 04:12:56;;;;;;;;;;;;;;;;;;5054569;28;19928;-75
2022/09/21 04:15:23;;;;;;;;;;;;;;;;;;5055289;28;19929;-75
2022/09/21 04:17:51;;;;;;;;;;;;;;;;;;5055106;28;19932;-76
2022/09/21 04:20:19;;;;;;;;;;;;;;;;;;5053777;28;19925;-77
2022/09/21 04:22:45;;;;;;;;;;;;;;;;;;5054848;28;20012;-76
2022/09/21 04:25:12;;;;;;;;;;;;;;;;;;5053944;28;19925;-76
2022/09/21 04:27:38;;;;;;;;;;;;;;;;;;5054052;28;19925;-76
2022/09/21 04:30:05;;;;;;;;;;;;;;;;;;5053737;28;19925;-76
2022/09/21 04:32:31;;;;;;;;;;;;;;;;;;5053909;28;20010;-76
2022/09/21 04:34:58;;;;;;;;;;;;;;;;;;5054151;28;19931;-75
2022/09/21 04:37:26;;;;;;;;;;;;;;;;;;5085800;22;19933;-59
2022/09/21 04:39:52;;;;;;;;;;;;;;;;;;5055539;28;19928;-60
2022/09/21 04:42:19;;;;;;;;;;;;;;;;;;5053128;28;19929;-58
2022/09/21 04:44:45;;;;;;;;;;;;;;;;;;5052997;28;19924;-59
2022/09/21 04:47:12;;;;;;;;;;;;;;;;;;5052735;28;19925;-58
2022/09/21 04:49:39;;;;;;;;;;;;;;;;;;5052845;28;19925;-59
2022/09/21 04:52:05;;;;;;;;;;;;;;;;;;5053358;28;19978;-59
2022/09/21 04:54:33;;;;;;;;;;;;;;;;;;5052212;28;20354;-58
2022/09/21 04:57:00;;;;;;;;;;;;;;;;;;5052936;28;20367;-58
2022/09/21 04:59:26;;;;;;;;;;;;;;;;;;5052436;28;19925;-58
2022/09/21 05:01:53;;;;;;;;;;;;;;;;;;5046880;28;19926;-56
2022/09/21 05:04:20;;;;;;;;;;;;;;;;;;5051961;28;20118;-58
2022/09/21 05:06:46;;;;;;;;;;;;;;;;;;5052680;28;19928;-60
2022/09/21 05:11:58;;;;;;;;;;;;;;;;;;5033072;28;20404;-59
2022/09/21 05:14:24;;;;;;;;;;;;;;;;;;5043819;28;20394;-58
2022/09/21 05:16:51;;;;;;;;;;;;;;;;;;5053371;28;19925;-58
2022/09/21 05:19:18;;;;;;;;;;;;;;;;;;5052887;28;19924;-61
2022/09/21 05:21:45;;;;;;;;;;;;;;;;;;5052950;28;20266;-55
2022/09/21 05:24:11;;;;;;;;;;;;;;;;;;5052628;28;19924;-58
2022/09/21 05:26:38;;;;;;;;;;;;;;;;;;5033293;28;19987;-59
2022/09/21 05:29:06;;;;;;;;;;;;;;;;;;5051350;28;19928;-59
2022/09/21 05:31:38;;;;;;;;;;;;;;;;;;5052913;28;20003;-56
2022/09/21 05:34:06;;;;;;;;;;;;;;;;;;5049146;28;19932;-58
2022/09/21 05:36:38;;;;;;;;;;;;;;;;;;5051944;28;19925;-59
2022/09/21 05:39:05;;;;;;;;;;;;;;;;;;5048496;28;19984;-59
2022/09/21 05:41:32;;;;;;;;;;;;;;;;;;5053023;28;20392;-56
2022/09/21 05:43:59;;;;;;;;;;;;;;;;;;5052153;28;19925;-59
2022/09/21 05:46:35;;;;;;;;;;;;;;;;;;5052343;28;19925;-58
2022/09/21 05:49:05;;;;;;;;;;;;;;;;;;5052199;28;19982;-59
2022/09/21 05:51:36;;;;;;;;;;;;;;;;;;5051530;28;19933;-59
2022/09/21 05:54:10;;;;;;;;;;;;;;;;;;5051725;28;19925;-58
2022/09/21 05:56:42;;;;;;;;;;;;;;;;;;5052050;28;19925;-59
2022/09/21 05:59:16;;;;;;;;;;;;;;;;;;5051409;28;19924;-57
2022/09/21 06:01:51;;;;;;;;;;;;;;;;;;5051537;28;19980;-58
2022/09/21 06:04:18;;;;;;;;;;;;;;;;;;5038169;28;19925;-58
2022/09/21 06:06:44;;;;;;;;;;;;;;;;;;5051323;28;20457;-59
2022/09/21 06:09:11;;;;;;;;;;;;;;;;;;5051112;28;19928;-59
2022/09/21 06:11:37;;;;;;;;;;;;;;;;;;5051022;28;19932;-60
2022/09/21 06:14:04;;;;;;;;;;;;;;;;;;5050880;28;19924;-60
2022/09/21 06:16:36;;;;;;;;;;;;;;;;;;5051119;28;19925;-58
2022/09/21 06:19:04;;;;;;;;;;;;;;;;;;5050785;28;20329;-57
2022/09/21 06:21:31;;;;;;;;;;;;;;;;;;5050489;28;19929;-58
2022/09/21 06:23:57;;;;;;;;;;;;;;;;;;5050385;28;19925;-58
2022/09/21 06:26:24;;;;;;;;;;;;;;;;;;5051117;28;19925;-58
2022/09/21 06:28:50;;;;;;;;;;;;;;;;;;5050251;28;19928;-59
2022/09/21 06:31:17;;;;;;;;;;;;;;;;;;5050748;28;19929;-57
2022/09/21 06:33:44;;;;;;;;;;;;;;;;;;5050477;28;19970;-57
2022/09/21 06:36:11;;;;;;;;;;;;;;;;;;5051091;28;19974;-56
2022/09/21 06:38:38;;;;;;;;;;;;;;;;;;5050025;28;20156;-59
2022/09/21 06:41:05;;;;;;;;;;;;;;;;;;5049072;28;19998;-60
2022/09/21 06:43:32;;;;;;;;;;;;;;;;;;5050930;28;19924;-59
2022/09/21 06:45:59;;;;;;;;;;;;;;;;;;5051404;28;19929;-61
2022/09/21 06:48:26;;;;;;;;;;;;;;;;;;5051229;28;19929;-58
2022/09/21 06:50:56;;;;;;;;;;;;;;;;;;5051086;28;20472;-56
2022/09/21 06:53:24;;;;;;;;;;;;;;;;;;5050629;28;19986;-59
2022/09/21 06:55:51;;;;;;;;;;;;;;;;;;5051098;28;19935;-59
2022/09/21 06:58:18;;;;;;;;;;;;;;;;;;5051189;28;20024;-58
2022/09/21 07:00:44;;;;;;;;;;;;;;;;;;5050586;28;19933;-57
2022/09/21 07:03:11;;;;;;;;;;;;;;;;;;5051866;28;19932;-58
2022/09/21 07:05:38;;;;;;;;;;;;;;;;;;5051443;28;19972;-57
2022/09/21 07:08:05;;;;;;;;;;;;;;;;;;5050911;28;19925;-58
2022/09/21 07:10:33;;;;;;;;;;;;;;;;;;5051031;28;19990;-57
2022/09/21 07:13:02;;;;;;;;;;;;;;;;;;5048097;28;19925;-59
2022/09/21 07:15:30;;;;;;;;;;;;;;;;;;5052146;28;20452;-60
2022/09/21 07:17:56;;;;;;;;;;;;;;;;;;5052906;28;20219;-58
2022/09/21 07:20:23;;;;;;;;;;;;;;;;;;5052264;28;19933;-57
2022/09/21 07:22:50;;;;;;;;;;;;;;;;;;5053027;28;19928;-59
2022/09/21 07:25:16;;;;;;;;;;;;;;;;;;5053082;28;20777;-60
2022/09/21 07:27:46;;;;;;;;;;;;;;;;;;5052931;28;19925;-59
2022/09/21 07:30:13;;;;;;;;;;;;;;;;;;5051103;28;19924;-59
2022/09/21 07:32:39;;;;;;;;;;;;;;;;;;5052365;28;20015;-55
2022/09/21 07:35:06;;;;;;;;;;;;;;;;;;5052114;28;20352;-55
2022/09/21 07:37:33;;;;;;;;;;;;;;;;;;5051754;28;19924;-65
2022/09/21 07:40:02;;;;;;;;;;;;;;;;;;5052093;28;19952;-54
2022/09/21 07:42:29;;;;;;;;;;;;;;;;;;5053022;28;19931;-55
2022/09/21 07:44:57;;;;;;;;;;;;;;;;;;5052739;28;19924;-64
2022/09/21 07:47:25;;;;;;;;;;;;;;;;;;5053051;28;19931;-57
2022/09/21 07:49:52;;;;;;;;;;;;;;;;;;5052507;28;20321;-54
2022/09/21 07:52:19;;;;;;;;;;;;;;;;;;5052482;28;20356;-54
2022/09/21 07:54:45;;;;;;;;;;;;;;;;;;5052440;28;19983;-51
2022/09/21 08:00:06;;;;;;;;;;;;;;;;;;5023240;28;19948;-53
2022/09/21 08:02:33;;;;;;;;;;;;;;;;;;5047640;28;19925;-53
2022/09/21 08:05:00;;;;;;;;;;;;;;;;;;5051780;28;19929;-52
2022/09/21 08:07:27;;;;;;;;;;;;;;;;;;5052460;28;19925;-53
2022/09/21 08:09:53;;;;;;;;;;;;;;;;;;5051880;28;19931;-53
2022/09/21 08:12:20;;;;;;;;;;;;;;;;;;5051908;28;20304;-54
2022/09/21 08:14:47;;;;;;;;;;;;;;;;;;5042804;28;20399;-54
2022/09/21 08:17:15;;;;;;;;;;;;;;;;;;5049015;28;19933;-53
2022/09/21 08:19:42;;;;;;;;;;;;;;;;;;5048252;28;19936;-55
2022/09/21 08:22:10;;;;;;;;;;;;;;;;;;5048964;28;20262;-54
2022/09/21 08:24:37;;;;;;;;;;;;;;;;;;5049035;28;20365;-56
2022/09/21 08:27:04;;;;;;;;;;;;;;;;;;5052064;28;20023;-56
2022/09/21 08:29:31;;;;;;;;;;;;;;;;;;5051694;28;19995;-55
2022/09/21 08:31:58;;;;;;;;;;;;;;;;;;5052196;28;19929;-55
2022/09/21 08:34:26;;;;;;;;;;;;;;;;;;5051781;28;20332;-57
2022/09/21 08:36:53;;;;;;;;;;;;;;;;;;5051802;28;19924;-56
2022/09/21 08:39:20;;;;;;;;;;;;;;;;;;5051341;28;19925;-56
2022/09/21 08:41:52;;;;;;;;;;;;;;;;;;5051631;28;19990;-56
2022/09/21 08:44:21;;;;;;;;;;;;;;;;;;5051690;28;20059;-55
2022/09/21 08:46:49;;;;;;;;;;;;;;;;;;5052116;28;20326;-56
2022/09/21 08:49:17;;;;;;;;;;;;;;;;;;5051310;28;19924;-57
2022/09/21 08:51:48;;;;;;;;;;;;;;;;;;5051191;28;20335;-57
2022/09/21 08:54:17;;;;;;;;;;;;;;;;;;5050160;28;19925;-56
2022/09/21 08:56:43;;;;;;;;;;;;;;;;;;5050400;28;19925;-57
2022/09/21 08:59:11;;;;;;;;;;;;;;;;;;5050706;28;19932;-56
2022/09/21 09:01:47;;;;;;;;;;;;;;;;;;5051133;28;19936;-58
2022/09/21 09:04:22;;;;;;;;;;;;;;;;;;5050895;28;19932;-58
2022/09/21 09:06:52;;;;;;;;;;;;;;;;;;5051485;28;19932;-57
2022/09/21 09:09:37;;;;;;;;;;;;;;;;;;5051588;28;20389;-54
2022/09/21 09:12:11;;;;;;;;;;;;;;;;;;5050850;28;20016;-58
2022/09/21 09:14:50;;;;;;;;;;;;;;;;;;5031215;28;19979;-55
2022/09/21 09:17:27;;;;;;;;;;;;;;;;;;5031490;28;19952;-55
2022/09/21 09:19:56;;;;;;;;;;;;;;;;;;5031176;28;19925;-56
2022/09/21 09:22:27;;;;;;;;;;;;;;;;;;5030774;28;20004;-57
2022/09/21 09:24:56;;;;;;;;;;;;;;;;;;5047135;28;20345;-57
2022/09/21 09:27:27;;;;;;;;;;;;;;;;;;5050481;28;20243;-56
2022/09/21 09:29:56;;;;;;;;;;;;;;;;;;5050334;28;19979;-57
2022/09/21 09:32:27;;;;;;;;;;;;;;;;;;5050638;28;19936;-58
2022/09/21 09:34:57;;;;;;;;;;;;;;;;;;5050941;28;19928;-56
2022/09/21 09:37:28;;;;;;;;;;;;;;;;;;5050681;28;19928;-57
2022/09/21 09:39:56;;;;;;;;;;;;;;;;;;5050135;28;19925;-58
2022/09/21 09:42:31;;;;;;;;;;;;;;;;;;5050622;28;20020;-56
2022/09/21 09:45:03;;;;;;;;;;;;;;;;;;5037162;28;19925;-57
2022/09/21 09:47:36;;;;;;;;;;;;;;;;;;5035592;28;19925;-56
2022/09/21 09:50:06;;;;;;;;;;;;;;;;;;5037640;28;20378;-57
2022/09/21 09:52:35;;;;;;;;;;;;;;;;;;5048639;28;19979;-56
2022/09/21 09:55:10;;;;;;;;;;;;;;;;;;5049859;28;19954;-60
2022/09/21 09:57:36;;;;;;;;;;;;;;;;;;5030959;28;19948;-57
2022/09/21 10:00:08;;;;;;;;;;;;;;;;;;5030790;28;20380;-56
2022/09/21 10:02:45;;;;;;;;;;;;;;;;;;5042377;28;19924;-56
2022/09/21 10:05:18;;;;;;;;;;;;;;;;;;5047428;28;19925;-56
2022/09/21 10:07:46;;;;;;;;;;;;;;;;;;5050408;28;19986;-56
2022/09/21 10:10:23;;;;;;;;;;;;;;;;;;5048687;28;19925;-57
2022/09/21 10:12:50;;;;;;;;;;;;;;;;;;5041371;28;19932;-57
2022/09/21 10:15:17;;;;;;;;;;;;;;;;;;5050548;28;19979;-57
2022/09/21 10:17:45;;;;;;;;;;;;;;;;;;5050465;28;19931;-57
2022/09/21 10:20:16;;;;;;;;;;;;;;;;;;5050013;28;19929;-55
2022/09/21 10:22:45;;;;;;;;;;;;;;;;;;5049463;28;19955;-57
2022/09/21 10:25:16;;;;;;;;;;;;;;;;;;5050245;28;19931;-56
2022/09/21 10:27:44;;;;;;;;;;;;;;;;;;5050096;28;19929;-56
2022/09/21 10:30:31;;;;;;;;;;;;;;;;;;5049340;28;20012;-58
2022/09/21 10:32:58;;;;;;;;;;;;;;;;;;5049166;28;20188;-56
2022/09/21 10:35:25;;;;;;;;;;;;;;;;;;5039982;28;20018;-56
2022/09/21 10:38:07;;;;;;;;;;;;;;;;;;5051091;28;19925;-56
2022/09/21 10:40:36;;;;;;;;;;;;;;;;;;5052235;28;20038;-55
2022/09/21 10:43:02;;;;;;;;;;;;;;;;;;5043257;28;19983;-56
2022/09/21 10:45:30;;;;;;;;;;;;;;;;;;5042673;28;19925;-57
2022/09/21 10:47:57;;;;;;;;;;;;;;;;;;5044827;28;19932;-57
2022/09/21 10:50:26;;;;;;;;;;;;;;;;;;5042844;28;19955;-55
2022/09/21 10:52:56;;;;;;;;;;;;;;;;;;5043317;28;20383;-56
2022/09/21 10:55:24;;;;;;;;;;;;;;;;;;5045508;28;20406;-56
2022/09/21 10:57:52;;;;;;;;;;;;;;;;;;5049349;28;19936;-51
2022/09/21 11:00:35;;;;;;;;;;;;;;;;;;5038067;28;19948;-53
2022/09/21 11:03:03;;;;;;;;;;;;;;;;;;5033805;28;19925;-53
2022/09/21 11:05:32;;;;;;;;;;;;;;;;;;5033739;28;20370;-54
2022/09/21 11:08:00;;;;;;;;;;;;;;;;;;5033675;28;19986;-51
2022/09/21 11:10:30;;;;;;;;;;;;;;;;;;5051450;28;19925;-54
2022/09/21 11:13:05;;;;;;;;;;;;;;;;;;5069683;28;19978;-53
2022/09/21 11:15:37;;;;;;;;;;;;;;;;;;5073501;28;19924;-55
2022/09/21 11:18:06;;;;;;;;;;;;;;;;;;5057656;28;20547;-57
2022/09/21 11:20:36;;;;;;;;;;;;;;;;;;5053791;28;19944;-54
2022/09/21 11:23:04;;;;;;;;;;;;;;;;;;5052753;28;20003;-57
2022/09/21 11:25:35;;;;;;;;;;;;;;;;;;5053290;28;19924;-54
2022/09/21 11:28:05;;;;;;;;;;;;;;;;;;5053756;28;19925;-55
2022/09/21 11:30:40;;;;;;;;;;;;;;;;;;5053061;28;19970;-54
2022/09/21 11:33:17;;;;;;;;;;;;;;;;;;5053311;28;19924;-52
2022/09/21 11:35:52;;;;;;;;;;;;;;;;;;5053646;28;19939;-56
2022/09/21 11:38:25;;;;;;;;;;;;;;;;;;5053216;28;19930;-49
2022/09/21 11:41:09;;;;;;;;;;;;;;;;;;5053020;28;19925;-54
2022/09/21 11:43:46;;;;;;;;;;;;;;;;;;5052984;28;19952;-56
2022/09/21 11:46:20;;;;;;;;;;;;;;;;;;5053112;28;19933;-52
2022/09/21 11:48:59;;;;;;;;;;;;;;;;;;5052608;28;19925;-55
2022/09/21 11:51:38;;;;;;;;;;;;;;;;;;5053094;28;20301;-54
2022/09/21 11:54:22;;;;;;;;;;;;;;;;;;5052846;28;19925;-62
2022/09/21 11:56:50;;;;;;;;;;;;;;;;;;5042259;28;20386;-56
2022/09/21 11:59:25;;;;;;;;;;;;;;;;;;5033404;28;19925;-52
2022/09/21 12:02:13;;;;;;;;;;;;;;;;;;5052826;28;20344;-56
2022/09/21 12:04:43;;;;;;;;;;;;;;;;;;5052707;28;19932;-56
2022/09/21 12:07:20;;;;;;;;;;;;;;;;;;5052614;28;19931;-55
2022/09/21 12:09:57;;;;;;;;;;;;;;;;;;5052486;28;19964;-55
2022/09/21 12:12:26;;;;;;;;;;;;;;;;;;5039729;28;19925;-55
2022/09/21 12:14:57;;;;;;;;;;;;;;;;;;5065375;28;20306;-56
2022/09/21 12:17:27;;;;;;;;;;;;;;;;;;5072759;28;19924;-53
2022/09/21 12:20:01;;;;;;;;;;;;;;;;;;5072277;28;20409;-51
2022/09/21 12:22:28;;;;;;;;;;;;;;;;;;5070612;28;19975;-55
2022/09/21 12:24:58;;;;;;;;;;;;;;;;;;5052225;28;20174;-56
2022/09/21 12:27:26;;;;;;;;;;;;;;;;;;5052302;28;19925;-53
2022/09/21 12:29:56;;;;;;;;;;;;;;;;;;5052416;28;20373;-56
2022/09/21 12:32:25;;;;;;;;;;;;;;;;;;5052115;28;20417;-56
2022/09/21 12:34:55;;;;;;;;;;;;;;;;;;5051857;28;19925;-52
2022/09/21 12:37:25;;;;;;;;;;;;;;;;;;5062912;28;20020;-52
2022/09/21 12:39:57;;;;;;;;;;;;;;;;;;5052064;28;19928;-55
2022/09/21 12:42:27;;;;;;;;;;;;;;;;;;5051979;28;20011;-56
2022/09/21 12:44:58;;;;;;;;;;;;;;;;;;5057038;28;19974;-56
2022/09/21 12:47:28;;;;;;;;;;;;;;;;;;5051701;28;20007;-55
2022/09/21 12:49:57;;;;;;;;;;;;;;;;;;5051637;28;19925;-55
2022/09/21 12:52:25;;;;;;;;;;;;;;;;;;5052183;28;20015;-53
2022/09/21 12:54:56;;;;;;;;;;;;;;;;;;5051489;28;19928;-52
2022/09/21 12:57:30;;;;;;;;;;;;;;;;;;5051715;28;19983;-53
2022/09/21 13:00:02;;;;;;;;;;;;;;;;;;5050924;28;19925;-52
2022/09/21 13:02:32;;;;;;;;;;;;;;;;;;5051464;28;19946;-54
2022/09/21 13:05:04;;;;;;;;;;;;;;;;;;5051625;28;20277;-54
2022/09/21 13:07:54;;;;;;;;;;;;;;;;;;5051503;28;19925;-55
2022/09/21 13:10:23;;;;;;;;;;;;;;;;;;5051229;28;19929;-53
2022/09/21 13:12:53;;;;;;;;;;;;;;;;;;5051555;28;20301;-53
2022/09/21 13:15:26;;;;;;;;;;;;;;;;;;5051369;28;20417;-52
2022/09/21 13:17:59;;;;;;;;;;;;;;;;;;5051064;28;19939;-56
2022/09/21 13:20:27;;;;;;;;;;;;;;;;;;5051437;28;20489;-58
2022/09/21 13:22:59;;;;;;;;;;;;;;;;;;5063989;28;20258;-57
2022/09/21 13:25:28;;;;;;;;;;;;;;;;;;5071365;28;19925;-54
2022/09/21 13:28:03;;;;;;;;;;;;;;;;;;5071319;28;19974;-56
2022/09/21 13:30:32;;;;;;;;;;;;;;;;;;5071240;28;19931;-56
2022/09/21 13:32:58;;;;;;;;;;;;;;;;;;5090824;22;19924;-77
2022/09/21 13:35:43;;;;;;;;;;;;;;;;;;5071232;28;19924;-77
2022/09/21 13:38:23;;;;;;;;;;;;;;;;;;5071446;28;19929;-78
2022/09/21 13:40:56;;;;;;;;;;;;;;;;;;5072439;28;19925;-75
2022/09/21 13:43:23;;;;;;;;;;;;;;;;;;5071428;28;20369;-78
2022/09/21 13:45:53;;;;;;;;;;;;;;;;;;5072042;28;19931;-77
2022/09/21 13:48:26;;;;;;;;;;;;;;;;;;5072504;28;20011;-77
2022/09/21 13:50:56;;;;;;;;;;;;;;;;;;5068977;28;20304;-78
2022/09/21 13:53:25;;;;;;;;;;;;;;;;;;5057200;28;20294;-77
2022/09/21 13:55:53;;;;;;;;;;;;;;;;;;5060477;28;19937;-77
2022/09/21 13:58:22;;;;;;;;;;;;;;;;;;5051229;28;20363;-78
2022/09/21 14:00:53;;;;;;;;;;;;;;;;;;5051742;28;19932;-78
2022/09/21 14:03:21;;;;;;;;;;;;;;;;;;5053764;28;20139;-78
2022/09/21 14:05:49;;;;;;;;;;;;;;;;;;5066667;28;19924;-77
2022/09/21 14:08:21;;;;;;;;;;;;;;;;;;5071116;28;20605;-77
2022/09/21 14:10:50;;;;;;;;;;;;;;;;;;5071865;28;19970;-77
2022/09/21 14:13:24;;;;;;;;;;;;;;;;;;5071308;28;19931;-77
2022/09/21 14:15:52;;;;;;;;;;;;;;;;;;5071843;28;19924;-77
2022/09/21 14:18:35;;;;;;;;;;;;;;;;;;5071318;28;19924;-77
2022/09/21 14:21:16;;;;;;;;;;;;;;;;;;5070945;28;19925;-78
2022/09/21 14:24:03;;;;;;;;;;;;;;;;;;5071202;28;19936;-78
2022/09/21 14:26:33;;;;;;;;;;;;;;;;;;5055756;28;20342;-77
2022/09/21 14:29:06;;;;;;;;;;;;;;;;;;5051018;28;20384;-77
2022/09/21 14:31:36;;;;;;;;;;;;;;;;;;5050540;28;19951;-77
2022/09/21 14:34:04;;;;;;;;;;;;;;;;;;5051161;28;19929;-77
2022/09/21 14:36:36;;;;;;;;;;;;;;;;;;5051245;28;19978;-77
2022/09/21 14:39:04;;;;;;;;;;;;;;;;;;5051282;28;19935;-77
2022/09/21 14:41:33;;;;;;;;;;;;;;;;;;5051244;28;20016;-78
2022/09/21 14:44:00;;;;;;;;;;;;;;;;;;5052960;28;20386;-78
2022/09/21 14:46:36;;;;;;;;;;;;;;;;;;5053128;28;20011;-78
2022/09/21 14:49:08;;;;;;;;;;;;;;;;;;5052824;28;19992;-78
2022/09/21 14:51:38;;;;;;;;;;;;;;;;;;5053178;28;20013;-78
2022/09/21 14:54:13;;;;;;;;;;;;;;;;;;5052298;28;20279;-78
2022/09/21 14:56:45;;;;;;;;;;;;;;;;;;5052460;28;19932;-78
2022/09/21 14:59:22;;;;;;;;;;;;;;;;;;5052632;28;19947;-78
2022/09/21 15:01:58;;;;;;;;;;;;;;;;;;5052577;28;20011;-78
2022/09/21 15:04:39;;;;;;;;;;;;;;;;;;5051385;28;19940;-78
2022/09/21 15:12:58;;;;;;;;;;;;;;;;;;5050612;28;19948;-78
2022/09/21 15:15:32;;;;;;;;;;;;;;;;;;5050573;28;19935;-77
2022/09/21 15:18:00;;;;;;;;;;;;;;;;;;5050774;28;19925;-78
2022/09/21 15:20:28;;;;;;;;;;;;;;;;;;5050585;28;19935;-78
2022/09/21 15:22:57;;;;;;;;;;;;;;;;;;5050695;28;19932;-78
2022/09/21 15:25:24;;;;;;;;;;;;;;;;;;5055390;28;19955;-78
2022/09/21 15:27:52;;;;;;;;;;;;;;;;;;5055647;28;19947;-78
2022/09/21 15:30:19;;;;;;;;;;;;;;;;;;5054407;28;19925;-77
2022/09/21 15:32:47;;;;;;;;;;;;;;;;;;5056445;28;20012;-78
2022/09/21 15:35:17;;;;;;;;;;;;;;;;;;5055221;28;19928;-78
2022/09/21 15:37:44;;;;;;;;;;;;;;;;;;5056331;28;19975;-78
2022/09/21 15:40:18;;;;;;;;;;;;;;;;;;5058722;28;19924;-78
2022/09/21 15:42:59;;;;;;;;;;;;;;;;;;5059501;28;20006;-77
2022/09/21 15:45:27;;;;;;;;;;;;;;;;;;5062633;28;19960;-78
2022/09/21 15:47:54;;;;;;;;;;;;;;;;;;5059113;28;20401;-78
2022/09/21 15:50:22;;;;;;;;;;;;;;;;;;5058911;28;20345;-77
2022/09/21 15:52:51;;;;;;;;;;;;;;;;;;5057522;28;19924;-78
2022/09/21 15:55:20;;;;;;;;;;;;;;;;;;5057336;28;20307;-78
2022/09/21 15:57:47;;;;;;;;;;;;;;;;;;5059541;28;19932;-77
2022/09/21 16:00:22;;;;;;;;;;;;;;;;;;5067300;28;20441;-77
2022/09/21 16:03:03;;;;;;;;;;;;;;;;;;5071172;28;19988;-78
2022/09/21 16:05:31;;;;;;;;;;;;;;;;;;5065782;28;19925;-77
2022/09/21 16:08:05;;;;;;;;;;;;;;;;;;5067542;28;19925;-77
2022/09/21 16:10:38;;;;;;;;;;;;;;;;;;5072205;28;19924;-79
2022/09/21 16:14:52;;;;;;;;;;;;;;;;;;5071072;28;19924;-79
2022/09/21 16:15:58;;;;;;;;;;;;;;;;;;5070243;28;19925;-77
2022/09/21 16:18:31;;;;;;;;;;;;;;;;;;5076442;28;19923;-78
2022/09/21 16:21:07;;;;;;;;;;;;;;;;;;5075929;28;19925;-78
2022/09/21 16:23:33;;;;;;;;;;;;;;;;;;5077852;28;20076;-77
2022/09/21 16:26:01;;;;;;;;;;;;;;;;;;5079439;28;19967;-77
2022/09/21 16:28:35;;;;;;;;;;;;;;;;;;5078492;28;19913;-78
2022/09/21 16:31:22;;;;;;;;;;;;;;;;;;5061961;28;19929;-77
2022/09/21 16:34:07;;;;;;;;;;;;;;;;;;5055770;28;19925;-77
2022/09/21 16:36:44;;;;;;;;;;;;;;;;;;5056894;28;19929;-81
2022/09/21 16:39:12;;;;;;;;;;;;;;;;;;5059022;28;20011;-78
2022/09/21 16:41:41;;;;;;;;;;;;;;;;;;5058360;28;19931;-78
2022/09/21 16:44:09;;;;;;;;;;;;;;;;;;5061106;28;19980;-79
2022/09/21 16:46:36;;;;;;;;;;;;;;;;;;5064539;28;19925;-78
2022/09/21 16:49:02;;;;;;;;;;;;;;;;;;5058598;28;20405;-78
2022/09/21 16:51:29;;;;;;;;;;;;;;;;;;5054009;28;19931;-77
2022/09/21 16:53:55;;;;;;;;;;;;;;;;;;5054943;28;19980;-78
2022/09/21 16:56:22;;;;;;;;;;;;;;;;;;5054540;28;19955;-77
2022/09/21 16:58:50;;;;;;;;;;;;;;;;;;5054328;28;19929;-78
2022/09/21 17:01:19;;;;;;;;;;;;;;;;;;5054866;28;19925;-76
2022/09/21 17:03:46;;;;;;;;;;;;;;;;;;5053630;28;20325;-77
2022/09/21 17:06:14;;;;;;;;;;;;;;;;;;5054324;28;19932;-78
2022/09/21 17:08:41;;;;;;;;;;;;;;;;;;5055451;28;20474;-77
2022/09/21 17:11:07;;;;;;;;;;;;;;;;;;5055499;28;20007;-77
2022/09/21 17:13:34;;;;;;;;;;;;;;;;;;5053601;28;19987;-77